Time;durP1;ratioP1;P1;durP2;ratioP2;P2;SDS_P1;SDS_P2;PMS_P1;PMS_P2;Temp;Humidity;BMP_temperature;BMP_pressure;BME280_temperature;BME280_humidity;BME280_pressure;Samples;Min_cycle;Max_cycle;Signal;HPM_P1;HPM_P2
2021/11/04 00:00:23;;;;;;;11.18;9.38;;;15.60;86.60;;;;;;4223603;28;20497;-60
2021/11/04 00:02:45;;;;;;;10.48;8.98;;;15.50;86.40;;;;;;4224709;28;20813;-59
2021/11/04 00:05:09;;;;;;;15.98;9.30;;;15.50;86.40;;;;;;4223335;28;20047;-60
2021/11/04 00:07:31;;;;;;;11.23;9.50;;;15.50;86.50;;;;;;4223690;28;20051;-60
2021/11/04 00:09:53;;;;;;;18.20;9.57;;;15.50;86.70;;;;;;4224481;28;20054;-60
2021/11/04 00:12:15;;;;;;;21.02;9.88;;;15.50;86.40;;;;;;4224521;28;20101;-60
2021/11/04 00:14:38;;;;;;;11.25;8.98;;;15.50;86.50;;;;;;4223957;28;20463;-59
2021/11/04 00:17:00;;;;;;;13.57;9.55;;;15.50;86.50;;;;;;4224260;28;20055;-59
2021/11/04 00:19:24;;;;;;;17.10;10.07;;;15.50;86.80;;;;;;4224344;28;20509;-60
2021/11/04 00:21:48;;;;;;;10.45;8.93;;;15.40;86.70;;;;;;4224574;28;20059;-60
2021/11/04 00:24:10;;;;;;;15.60;9.43;;;15.40;86.50;;;;;;4224128;28;20498;-60
2021/11/04 00:26:32;;;;;;;11.20;9.52;;;15.50;87.00;;;;;;4224360;28;20067;-60
2021/11/04 00:28:56;;;;;;;12.70;8.32;;;15.40;86.80;;;;;;4216956;28;20051;-60
2021/11/04 00:31:19;;;;;;;9.70;8.57;;;15.40;86.80;;;;;;4207382;28;20766;-60
2021/11/04 00:33:41;;;;;;;9.55;8.50;;;15.40;86.90;;;;;;4224263;28;20815;-59
2021/11/04 00:36:04;;;;;;;11.07;8.68;;;15.40;87.00;;;;;;4207464;28;20489;-60
2021/11/04 00:38:28;;;;;;;9.82;8.15;;;15.40;87.00;;;;;;4207617;28;20486;-60
2021/11/04 00:40:49;;;;;;;10.88;8.88;;;15.40;86.80;;;;;;4207809;28;20126;-60
2021/11/04 00:43:12;;;;;;;10.77;7.93;;;15.40;87.00;;;;;;4207676;28;20060;-60
2021/11/04 00:45:34;;;;;;;9.60;7.97;;;15.40;87.10;;;;;;4208790;28;20127;-60
2021/11/04 00:47:56;;;;;;;11.35;8.00;;;15.30;87.10;;;;;;4223774;28;20043;-60
2021/11/04 00:50:20;;;;;;;10.70;7.90;;;15.30;87.10;;;;;;4208865;28;20418;-59
2021/11/04 00:52:42;;;;;;;9.55;7.68;;;15.40;87.30;;;;;;4206999;28;20062;-58
2021/11/04 00:55:10;;;;;;;8.38;7.55;;;15.30;87.30;;;;;;4208946;28;20135;-60
2021/11/04 00:57:33;;;;;;;8.07;7.30;;;15.40;87.10;;;;;;4223890;28;20055;-59
2021/11/04 00:59:55;;;;;;;8.95;8.18;;;15.30;87.40;;;;;;4223921;28;20031;-60
2021/11/04 01:02:17;;;;;;;9.25;7.65;;;15.30;87.50;;;;;;4224243;28;20393;-60
2021/11/04 01:04:39;;;;;;;10.25;8.63;;;15.30;87.40;;;;;;4223651;28;20101;-60
2021/11/04 01:07:01;;;;;;;8.27;7.55;;;15.30;87.30;;;;;;4227541;28;20493;-59
2021/11/04 01:09:23;;;;;;;10.02;8.35;;;15.30;87.50;;;;;;4227356;28;20097;-59
2021/11/04 01:11:47;;;;;;;8.35;7.65;;;15.30;87.70;;;;;;4227528;28;20747;-59
2021/11/04 01:14:09;;;;;;;8.07;7.40;;;15.30;87.20;;;;;;4226452;28;20054;-59
2021/11/04 01:16:31;;;;;;;8.68;7.82;;;15.30;87.10;;;;;;4227440;28;20130;-60
2021/11/04 01:18:54;;;;;;;8.95;8.15;;;15.30;87.20;;;;;;4226431;28;20047;-59
2021/11/04 01:21:16;;;;;;;7.30;6.70;;;15.30;87.30;;;;;;4193758;28;20056;-60
2021/11/04 01:23:39;;;;;;;8.30;7.60;;;15.30;87.40;;;;;;4193763;28;20102;-60
2021/11/04 01:26:01;;;;;;;7.95;7.15;;;15.30;88.30;;;;;;4193795;28;20049;-59
2021/11/04 01:28:24;;;;;;;7.70;6.90;;;15.20;87.40;;;;;;4210443;28;20048;-59
2021/11/04 01:30:46;;;;;;;7.95;7.25;;;15.20;87.10;;;;;;4224606;28;20460;-59
2021/11/04 01:33:08;;;;;;;7.57;6.97;;;15.20;87.60;;;;;;4227339;28;20051;-59
2021/11/04 01:35:31;;;;;;;7.57;6.88;;;15.20;87.50;;;;;;4210190;28;20429;-59
2021/11/04 01:37:53;;;;;;;7.38;6.68;;;15.20;87.40;;;;;;4209881;28;20073;-59
2021/11/04 01:40:15;;;;;;;7.95;7.25;;;15.30;88.30;;;;;;4227013;28;20121;-59
2021/11/04 01:42:37;;;;;;;7.28;6.35;;;15.30;88.20;;;;;;4226887;28;20048;-59
2021/11/04 01:45:01;;;;;;;8.13;7.20;;;15.40;88.20;;;;;;4227016;28;20066;-59
2021/11/04 01:47:23;;;;;;;7.85;7.07;;;15.50;87.80;;;;;;4227013;28;20051;-59
2021/11/04 01:49:45;;;;;;;7.75;7.00;;;15.50;87.50;;;;;;4226285;28;20054;-59
2021/11/04 01:52:07;;;;;;;8.48;7.68;;;15.60;87.20;;;;;;4226831;28;20079;-59
2021/11/04 01:54:30;;;;;;;8.25;7.43;;;15.60;87.10;;;;;;4226642;28;20055;-59
2021/11/04 01:56:52;;;;;;;12.02;8.13;;;15.60;86.80;;;;;;4226833;28;20051;-59
2021/11/04 01:59:14;;;;;;;14.13;8.38;;;15.70;86.70;;;;;;4211154;28;20056;-59
2021/11/04 02:01:38;;;;;;;8.02;6.70;;;15.70;86.60;;;;;;4226919;28;20067;-60
2021/11/04 02:04:04;;;;;;;7.93;7.10;;;15.70;86.40;;;;;;4226595;28;20044;-59
2021/11/04 02:06:34;;;;;;;7.45;6.85;;;15.70;86.40;;;;;;4225669;28;20135;-59
2021/11/04 02:09:05;;;;;;;7.00;6.40;;;15.60;86.20;;;;;;4226382;28;20145;-60
2021/11/04 02:11:34;;;;;;;9.00;6.93;;;15.60;86.30;;;;;;4226167;28;20053;-60
2021/11/04 02:14:00;;;;;;;8.27;7.43;;;15.60;86.40;;;;;;4226536;28;20059;-60
2021/11/04 02:16:25;;;;;;;9.48;7.43;;;15.60;86.50;;;;;;4225515;28;20405;-60
2021/11/04 02:18:50;;;;;;;8.23;6.38;;;15.60;86.40;;;;;;4225866;28;20043;-59
2021/11/04 02:21:20;;;;;;;7.40;6.68;;;15.60;86.30;;;;;;4226025;28;20144;-59
2021/11/04 02:23:52;;;;;;;9.90;6.67;;;15.60;86.30;;;;;;4225988;28;20042;-59
2021/11/04 02:26:16;;;;;;;9.63;7.32;;;15.50;86.40;;;;;;4225764;28;20293;-60
2021/11/04 02:28:39;;;;;;;6.95;6.25;;;15.50;87.20;;;;;;4226052;28;20144;-59
2021/11/04 02:31:04;;;;;;;7.30;6.60;;;15.50;86.50;;;;;;4226301;28;20052;-59
2021/11/04 02:33:27;;;;;;;7.22;6.00;;;15.50;86.30;;;;;;4226348;28;20043;-59
2021/11/04 02:35:51;;;;;;;6.90;6.20;;;15.50;86.50;;;;;;4226122;28;20146;-59
2021/11/04 02:38:13;;;;;;;6.85;6.20;;;15.50;86.90;;;;;;4210610;28;20133;-59
2021/11/04 02:40:36;;;;;;;10.07;7.18;;;15.50;86.90;;;;;;4209059;28;20051;-59
2021/11/04 02:42:59;;;;;;;11.32;6.60;;;15.60;86.60;;;;;;4225994;28;20097;-59
2021/11/04 02:45:23;;;;;;;16.08;6.90;;;15.60;86.20;;;;;;4225798;28;20043;-59
2021/11/04 02:47:45;;;;;;;10.30;6.88;;;15.60;86.10;;;;;;4225824;28;20067;-59
2021/11/04 02:50:09;;;;;;;15.02;7.30;;;15.70;86.10;;;;;;4225640;28;20228;-59
2021/11/04 02:52:32;;;;;;;18.80;6.78;;;15.70;85.80;;;;;;4226110;28;20051;-59
2021/11/04 02:54:56;;;;;;;13.38;7.22;;;15.70;85.60;;;;;;4225348;28;20511;-59
2021/11/04 02:57:18;;;;;;;22.73;7.40;;;15.80;85.60;;;;;;4225590;28;20059;-59
2021/11/04 02:59:42;;;;;;;20.88;7.53;;;15.80;85.70;;;;;;4221877;28;20047;-60
2021/11/04 03:02:04;;;;;;;29.17;7.72;;;15.80;85.60;;;;;;4210997;28;20105;-60
2021/11/04 03:04:27;;;;;;;19.02;7.65;;;15.80;85.40;;;;;;4209008;28;22170;-59
2021/11/04 03:06:49;;;;;;;11.88;6.70;;;15.80;86.10;;;;;;4193501;28;20057;-59
2021/11/04 03:09:12;;;;;;;25.80;7.70;;;15.80;85.10;;;;;;4208776;28;20559;-60
2021/11/04 03:11:34;;;;;;;16.15;7.68;;;15.90;85.10;;;;;;4225613;28;20040;-60
2021/11/04 03:13:56;;;;;;;21.60;7.47;;;15.90;85.10;;;;;;4209981;28;20055;-59
2021/11/04 03:16:22;;;;;;;11.00;7.47;;;15.90;85.00;;;;;;4210004;28;20132;-59
2021/11/04 03:18:44;;;;;;;14.55;7.55;;;15.90;84.90;;;;;;4209126;28;20051;-59
2021/11/04 03:21:07;;;;;;;23.83;7.13;;;15.90;85.80;;;;;;4208743;28;20047;-60
2021/11/04 03:23:29;;;;;;;7.65;6.05;;;15.90;84.90;;;;;;4192048;28;20135;-60
2021/11/04 03:25:53;;;;;;;11.82;7.00;;;15.90;84.80;;;;;;4203497;28;20078;-60
2021/11/04 03:28:16;;;;;;;15.73;6.88;;;15.90;84.80;;;;;;4208419;28;20113;-59
2021/11/04 03:30:40;;;;;;;17.17;7.05;;;15.80;84.80;;;;;;4207888;28;20047;-59
2021/11/04 03:33:07;;;;;;;13.10;6.65;;;15.80;84.80;;;;;;4224912;28;20071;-59
2021/11/04 03:35:31;;;;;;;36.08;7.35;;;15.80;84.80;;;;;;4224816;28;20542;-59
2021/11/04 03:37:55;;;;;;;19.05;7.00;;;15.80;84.90;;;;;;4224758;28;20047;-59
2021/11/04 03:40:18;;;;;;;9.80;6.78;;;15.80;85.00;;;;;;4224413;28;20047;-59
2021/11/04 03:42:42;;;;;;;6.47;5.88;;;15.70;85.20;;;;;;4208086;28;20509;-59
2021/11/04 03:45:05;;;;;;;8.25;6.28;;;15.70;85.20;;;;;;4224684;28;20080;-59
2021/11/04 03:47:30;;;;;;;9.30;6.15;;;15.70;85.20;;;;;;4224379;28;20481;-60
2021/11/04 03:49:54;;;;;;;6.78;6.07;;;15.60;85.10;;;;;;4224674;28;20054;-59
2021/11/04 03:52:16;;;;;;;10.23;6.40;;;15.60;85.00;;;;;;4224853;28;20044;-60
2021/11/04 03:54:39;;;;;;;10.70;6.07;;;15.60;85.50;;;;;;4224846;28;20097;-60
2021/11/04 03:57:01;;;;;;;11.95;6.53;;;15.60;85.50;;;;;;4224933;28;20043;-59
2021/11/04 03:59:23;;;;;;;7.90;5.90;;;15.60;85.60;;;;;;4208019;28;20043;-60
2021/11/04 04:01:46;;;;;;;7.25;6.07;;;15.60;85.20;;;;;;4207613;28;20121;-59
2021/11/04 04:04:09;;;;;;;9.00;6.20;;;15.60;85.00;;;;;;4209147;28;20060;-60
2021/11/04 04:06:34;;;;;;;9.93;6.38;;;15.70;84.90;;;;;;4224924;28;20043;-60
2021/11/04 04:08:57;;;;;;;7.55;5.97;;;15.70;84.60;;;;;;4224503;28;20039;-59
2021/11/04 04:11:20;;;;;;;6.22;5.63;;;15.80;84.60;;;;;;4224484;28;20073;-59
2021/11/04 04:13:42;;;;;;;6.88;6.20;;;15.80;85.00;;;;;;4224646;28;20040;-59
2021/11/04 04:16:05;;;;;;;6.88;6.20;;;15.80;85.10;;;;;;4224662;28;20555;-59
2021/11/04 04:18:27;;;;;;;6.35;5.75;;;15.80;85.00;;;;;;4223955;28;20047;-60
2021/11/04 04:20:50;;;;;;;6.10;5.50;;;15.80;85.00;;;;;;4224493;28;20054;-59
2021/11/04 04:23:14;;;;;;;6.28;5.68;;;15.80;84.70;;;;;;4224277;28;20055;-60
2021/11/04 04:25:36;;;;;;;9.00;6.75;;;15.90;84.60;;;;;;4207441;28;20120;-59
2021/11/04 04:27:59;;;;;;;7.30;6.70;;;15.80;84.60;;;;;;4207964;28;20574;-58
2021/11/04 04:30:21;;;;;;;11.95;6.40;;;15.90;84.60;;;;;;4207990;28;20048;-59
2021/11/04 04:32:43;;;;;;;14.07;6.75;;;15.80;83.90;;;;;;4208979;28;20094;-59
2021/11/04 04:35:05;;;;;;;9.35;6.30;;;15.90;84.40;;;;;;4207713;28;20105;-59
2021/11/04 04:37:28;;;;;;;8.15;6.97;;;15.80;84.50;;;;;;4207163;28;20040;-59
2021/11/04 04:39:51;;;;;;;9.95;7.20;;;15.80;84.70;;;;;;4223356;28;20513;-59
2021/11/04 04:42:13;;;;;;;8.60;6.82;;;15.80;84.60;;;;;;4224261;28;20109;-59
2021/11/04 04:44:36;;;;;;;11.98;7.05;;;15.80;84.90;;;;;;4224424;28;20050;-59
2021/11/04 04:46:59;;;;;;;12.82;7.38;;;15.80;84.80;;;;;;4223920;28;20100;-59
2021/11/04 04:49:22;;;;;;;12.23;7.15;;;15.80;84.70;;;;;;4224414;28;20481;-60
2021/11/04 04:51:44;;;;;;;10.65;7.68;;;15.80;84.60;;;;;;4224228;28;20490;-59
2021/11/04 04:54:06;;;;;;;13.02;7.20;;;15.80;84.60;;;;;;4223903;28;20146;-59
2021/11/04 04:56:29;;;;;;;18.67;7.22;;;15.90;84.60;;;;;;4224274;28;20131;-59
2021/11/04 04:58:51;;;;;;;6.88;6.15;;;15.90;84.50;;;;;;4224349;28;20047;-59
2021/11/04 05:01:13;;;;;;;7.72;7.03;;;15.90;84.70;;;;;;4224216;28;20062;-60
2021/11/04 05:03:35;;;;;;;7.47;6.65;;;15.90;84.70;;;;;;4224249;28;20044;-59
2021/11/04 05:05:57;;;;;;;7.70;6.97;;;15.90;84.60;;;;;;4208524;28;20048;-59
2021/11/04 05:08:19;;;;;;;18.42;6.85;;;15.90;84.60;;;;;;4207421;28;20558;-60
2021/11/04 05:10:41;;;;;;;30.80;7.15;;;15.90;84.50;;;;;;4190557;28;20527;-59
2021/11/04 05:13:05;;;;;;;50.40;7.78;;;15.90;84.50;;;;;;4194339;28;20083;-59
2021/11/04 05:15:27;;;;;;;46.92;7.25;;;15.90;84.30;;;;;;4207240;28;25094;-59
2021/11/04 05:17:49;;;;;;;51.65;8.18;;;15.90;84.50;;;;;;4207422;28;20824;-59
2021/11/04 05:20:11;;;;;;;36.88;8.13;;;15.80;84.40;;;;;;4207952;28;20052;-59
2021/11/04 05:22:33;;;;;;;29.55;7.47;;;15.80;84.50;;;;;;4223858;28;20044;-59
2021/11/04 05:24:55;;;;;;;54.50;8.07;;;15.80;84.50;;;;;;4223723;28;20109;-59
2021/11/04 05:27:18;;;;;;;50.15;8.13;;;15.80;84.40;;;;;;4222842;28;20058;-59
2021/11/04 05:29:41;;;;;;;76.70;9.10;;;15.90;83.70;;;;;;4223167;28;20047;-59
2021/11/04 05:32:06;;;;;;;44.78;7.97;;;16.00;83.20;;;;;;4223478;28;20120;-59
2021/11/04 05:34:29;;;;;;;96.22;9.85;;;16.00;82.50;;;;;;4223794;28;20055;-59
2021/11/04 05:36:52;;;;;;;40.00;7.55;;;16.10;82.40;;;;;;4223993;28;20083;-59
2021/11/04 05:39:14;;;;;;;60.85;9.73;;;16.10;83.50;;;;;;4223708;28;20044;-59
2021/11/04 05:41:36;;;;;;;104.15;11.07;;;16.10;83.00;;;;;;4223538;28;20047;-59
2021/11/04 05:43:58;;;;;;;66.60;8.20;;;16.10;82.80;;;;;;4191194;28;20036;-59
2021/11/04 05:46:22;;;;;;;51.88;7.28;;;16.20;82.90;;;;;;4190683;28;20068;-60
2021/11/04 05:48:44;;;;;;;62.80;7.43;;;16.10;82.70;;;;;;4218956;28;20043;-59
2021/11/04 05:51:06;;;;;;;72.50;8.52;;;16.10;82.90;;;;;;4223431;28;20097;-59
2021/11/04 05:53:28;;;;;;;86.40;9.20;;;16.10;83.10;;;;;;4226315;28;20559;-60
2021/11/04 05:55:51;;;;;;;57.42;8.00;;;16.10;83.40;;;;;;4226456;28;20079;-60
2021/11/04 05:58:13;;;;;;;58.03;8.60;;;16.00;83.40;;;;;;4210020;28;20048;-60
2021/11/04 06:00:35;;;;;;;38.97;7.72;;;16.00;83.50;;;;;;4192164;28;20487;-60
2021/11/04 06:02:59;;;;;;;72.82;8.38;;;16.00;83.60;;;;;;4205770;28;20055;-60
2021/11/04 06:05:21;;;;;;;72.00;8.88;;;16.00;83.60;;;;;;4226665;28;20043;-61
2021/11/04 06:07:43;;;;;;;50.00;7.43;;;15.90;83.50;;;;;;4226338;28;20558;-60
2021/11/04 06:10:06;;;;;;;41.83;6.97;;;15.90;83.40;;;;;;4226303;28;20043;-61
2021/11/04 06:12:30;;;;;;;56.70;7.72;;;15.90;83.30;;;;;;4226563;28;20127;-60
2021/11/04 06:14:52;;;;;;;68.65;7.85;;;15.90;82.90;;;;;;4226470;28;20048;-60
2021/11/04 06:17:15;;;;;;;58.60;8.15;;;15.90;83.20;;;;;;4225694;28;20063;-60
2021/11/04 06:19:38;;;;;;;30.75;6.88;;;15.90;82.40;;;;;;4226550;28;20074;-61
2021/11/04 06:22:00;;;;;;;61.03;7.30;;;16.00;81.80;;;;;;4226060;28;20043;-61
2021/11/04 06:24:22;;;;;;;48.47;7.25;;;16.00;81.90;;;;;;4226268;28;20156;-61
2021/11/04 06:26:44;;;;;;;52.22;8.23;;;16.00;81.80;;;;;;4226117;28;20142;-61
2021/11/04 06:29:06;;;;;;;57.60;8.48;;;16.00;82.40;;;;;;4226245;28;20489;-59
2021/11/04 06:31:29;;;;;;;46.63;7.95;;;16.00;82.30;;;;;;4224939;28;20051;-61
2021/11/04 06:33:51;;;;;;;30.80;7.32;;;16.00;82.00;;;;;;4226249;28;20085;-61
2021/11/04 06:36:14;;;;;;;27.48;7.30;;;16.00;82.10;;;;;;4222265;28;20141;-61
2021/11/04 06:38:36;;;;;;;25.17;6.88;;;16.00;82.50;;;;;;4209162;28;20048;-61
2021/11/04 06:40:59;;;;;;;31.60;6.95;;;16.00;81.40;;;;;;4209115;28;20048;-59
2021/11/04 06:43:21;;;;;;;34.67;6.00;;;16.00;81.70;;;;;;4192684;28;20639;-58
2021/11/04 06:45:48;;;;;;;25.95;7.00;;;16.00;82.50;;;;;;4193544;28;20144;-60
2021/11/04 06:48:14;;;;;;;23.48;5.72;;;16.00;82.70;;;;;;4210309;28;20047;-60
2021/11/04 06:50:37;;;;;;;15.50;5.30;;;16.00;83.60;;;;;;4209158;28;20044;-59
2021/11/04 06:53:06;;;;;;;17.30;5.07;;;16.00;83.70;;;;;;4210201;28;20569;-59
2021/11/04 06:55:29;;;;;;;19.20;5.40;;;16.00;83.50;;;;;;4209054;28;20079;-60
2021/11/04 06:57:54;;;;;;;13.25;5.53;;;16.00;83.80;;;;;;4224577;28;20453;-60
2021/11/04 07:00:16;;;;;;;13.63;6.07;;;16.00;84.00;;;;;;4225405;28;20043;-59
2021/11/04 07:02:40;;;;;;;28.58;5.97;;;15.90;84.10;;;;;;4224057;28;20455;-59
2021/11/04 07:05:05;;;;;;;29.65;6.00;;;15.90;83.90;;;;;;4209609;28;20482;-60
2021/11/04 07:07:27;;;;;;;31.75;6.45;;;15.90;83.90;;;;;;4205170;28;20072;-59
2021/11/04 07:09:51;;;;;;;15.55;5.28;;;16.00;84.10;;;;;;4208607;28;20048;-59
2021/11/04 07:12:14;;;;;;;16.92;5.40;;;16.00;83.80;;;;;;4208382;28;20080;-58
2021/11/04 07:14:39;;;;;;;19.95;5.57;;;16.00;83.70;;;;;;4208640;28;20523;-59
2021/11/04 07:17:02;;;;;;;22.42;5.80;;;16.00;83.50;;;;;;4224943;28;20100;-60
2021/11/04 07:19:24;;;;;;;16.52;5.65;;;15.90;83.60;;;;;;4225791;28;20467;-59
2021/11/04 07:21:59;;;;;;;16.23;6.00;;;16.00;83.70;;;;;;4224023;28;20093;-59
2021/11/04 07:24:29;;;;;;;20.17;5.53;;;16.00;83.20;;;;;;4224887;28;20054;-59
2021/11/04 07:26:55;;;;;;;17.02;5.38;;;16.10;82.80;;;;;;4225035;28;20047;-59
2021/11/04 07:29:20;;;;;;;15.10;5.78;;;16.20;81.70;;;;;;4207823;28;20517;-59
2021/11/04 07:31:43;;;;;;;20.23;6.05;;;16.40;81.10;;;;;;4209836;28;20560;-59
2021/11/04 07:34:07;;;;;;;25.13;5.28;;;16.60;79.90;;;;;;4225277;28;20067;-59
2021/11/04 07:36:32;;;;;;;17.63;4.93;;;16.80;78.90;;;;;;4223691;28;20046;-58
2021/11/04 07:38:57;;;;;;;15.57;5.25;;;17.00;78.00;;;;;;4195372;28;20051;-59
2021/11/04 07:41:20;;;;;;;15.75;5.10;;;17.20;77.60;;;;;;4208099;28;20072;-59
2021/11/04 07:43:43;;;;;;;14.07;4.95;;;17.40;76.60;;;;;;4224148;28;20054;-59
2021/11/04 07:46:05;;;;;;;17.50;4.82;;;17.50;75.90;;;;;;4224984;28;20055;-60
2021/11/04 07:48:28;;;;;;;14.93;4.78;;;17.60;75.60;;;;;;4208099;28;20133;-59
2021/11/04 07:50:51;;;;;;;12.63;4.68;;;17.60;74.70;;;;;;4209695;28;20043;-60
2021/11/04 07:53:15;;;;;;;18.45;5.25;;;17.70;75.40;;;;;;4225198;28;20135;-59
2021/11/04 07:55:37;;;;;;;30.42;5.30;;;17.60;74.60;;;;;;4221176;28;20047;-59
2021/11/04 07:57:59;;;;;;;12.32;5.03;;;17.70;73.60;;;;;;4213604;28;20452;-59
2021/11/04 08:00:28;;;;;;;12.10;4.10;;;17.70;73.40;;;;;;4209387;28;20044;-59
2021/11/04 08:02:50;;;;;;;19.75;4.88;;;17.70;73.50;;;;;;4209111;28;20151;-60
2021/11/04 08:05:14;;;;;;;22.25;4.45;;;17.80;74.20;;;;;;4224697;28;20051;-60
2021/11/04 08:07:37;;;;;;;26.67;4.85;;;17.70;74.00;;;;;;4224635;28;20112;-60
2021/11/04 08:09:59;;;;;;;26.60;4.60;;;17.70;74.10;;;;;;4224612;28;20063;-59
2021/11/04 08:12:21;;;;;;;47.13;5.18;;;17.60;74.70;;;;;;4224962;28;20051;-59
2021/11/04 08:14:43;;;;;;;30.48;4.30;;;17.60;74.80;;;;;;4223316;28;20048;-60
2021/11/04 08:17:07;;;;;;;20.20;4.32;;;17.50;74.30;;;;;;4223748;28;20044;-59
2021/11/04 08:19:29;;;;;;;17.30;4.05;;;17.50;74.70;;;;;;4223924;28;20047;-59
2021/11/04 08:21:51;;;;;;;8.63;3.38;;;17.50;74.50;;;;;;4223962;28;20051;-59
2021/11/04 08:24:14;;;;;;;15.63;3.92;;;17.60;74.90;;;;;;4208976;28;20055;-59
2021/11/04 08:26:36;;;;;;;21.65;4.35;;;17.60;74.80;;;;;;4224467;28;20405;-59
2021/11/04 08:29:01;;;;;;;21.08;3.67;;;17.50;74.50;;;;;;4224356;28;20093;-58
2021/11/04 08:31:24;;;;;;;15.02;3.60;;;17.50;75.20;;;;;;4224572;28;20047;-59
2021/11/04 08:33:47;;;;;;;18.15;4.15;;;17.50;74.80;;;;;;4224600;28;20067;-60
2021/11/04 08:36:10;;;;;;;25.58;3.88;;;17.50;74.10;;;;;;4223836;28;20452;-60
2021/11/04 08:38:32;;;;;;;21.42;4.10;;;17.60;73.00;;;;;;4209052;28;20143;-60
2021/11/04 08:40:54;;;;;;;20.20;3.65;;;17.60;74.40;;;;;;4224550;28;20070;-60
2021/11/04 08:43:16;;;;;;;16.13;3.85;;;17.60;74.10;;;;;;4224125;28;20393;-60
2021/11/04 08:45:38;;;;;;;12.02;3.58;;;17.50;73.30;;;;;;4222800;28;20153;-59
2021/11/04 08:48:01;;;;;;;13.27;3.45;;;17.60;72.90;;;;;;4224278;28;20059;-59
2021/11/04 08:50:24;;;;;;;18.83;3.60;;;17.60;72.10;;;;;;4224258;28;20117;-60
2021/11/04 08:52:52;;;;;;;10.57;3.13;;;17.60;71.70;;;;;;4220705;28;20063;-59
2021/11/04 08:55:14;;;;;;;15.65;3.83;;;17.60;72.80;;;;;;4223436;28;20055;-59
2021/11/04 08:57:37;;;;;;;9.18;2.83;;;17.60;74.90;;;;;;4220536;28;20093;-59
2021/11/04 08:59:59;;;;;;;10.68;3.20;;;17.50;74.10;;;;;;4224270;28;20052;-59
2021/11/04 09:02:21;;;;;;;14.55;3.00;;;17.50;74.50;;;;;;4207502;28;20069;-59
2021/11/04 09:04:44;;;;;;;9.40;3.03;;;17.50;74.80;;;;;;4211430;28;20044;-60
2021/11/04 09:07:08;;;;;;;5.10;2.70;;;17.50;74.40;;;;;;4216927;28;20048;-60
2021/11/04 09:09:30;;;;;;;8.70;2.75;;;17.40;71.90;;;;;;4224104;28;20051;-60
2021/11/04 09:11:52;;;;;;;8.50;3.25;;;17.40;73.20;;;;;;4208136;28;20463;-59
2021/11/04 09:14:14;;;;;;;14.07;3.30;;;17.40;72.40;;;;;;4207088;28;20413;-59
2021/11/04 09:16:38;;;;;;;8.10;3.30;;;17.40;74.60;;;;;;4207210;28;20068;-60
2021/11/04 09:19:00;;;;;;;5.63;3.20;;;17.30;76.80;;;;;;4224135;28;20142;-60
2021/11/04 09:21:22;;;;;;;4.38;2.80;;;17.30;76.70;;;;;;4216767;28;20048;-59
2021/11/04 09:23:46;;;;;;;10.73;3.72;;;17.20;77.50;;;;;;4208508;28;20047;-60
2021/11/04 09:26:08;;;;;;;9.50;3.78;;;17.20;78.10;;;;;;4208678;28;20765;-60
2021/11/04 09:28:30;;;;;;;16.02;4.00;;;17.20;76.50;;;;;;4227170;28;20458;-59
2021/11/04 09:30:52;;;;;;;8.90;4.07;;;17.20;75.70;;;;;;4227175;28;20046;-60
2021/11/04 09:33:15;;;;;;;10.80;4.10;;;17.20;74.30;;;;;;4211749;28;20056;-60
2021/11/04 09:35:37;;;;;;;10.10;4.28;;;17.20;73.20;;;;;;4211608;28;20043;-60
2021/11/04 09:37:59;;;;;;;19.95;4.88;;;17.10;74.80;;;;;;4227248;28;20071;-60
2021/11/04 09:40:23;;;;;;;9.68;3.90;;;17.10;73.80;;;;;;4227139;28;20048;-61
2021/11/04 09:42:47;;;;;;;15.60;4.88;;;17.10;74.70;;;;;;4226863;28;20092;-60
2021/11/04 09:45:09;;;;;;;20.55;5.95;;;17.10;77.10;;;;;;4225909;28;20055;-61
2021/11/04 09:47:33;;;;;;;17.10;6.35;;;17.10;77.10;;;;;;4227216;28;20505;-60
2021/11/04 09:49:57;;;;;;;49.20;7.80;;;17.20;77.40;;;;;;4208614;28;20525;-60
2021/11/04 09:52:23;;;;;;;21.88;5.45;;;17.20;76.00;;;;;;4223315;28;20733;-60
2021/11/04 09:54:45;;;;;;;34.83;6.63;;;17.20;77.40;;;;;;4226574;28;20104;-59
2021/11/04 09:57:09;;;;;;;16.15;5.07;;;17.10;77.60;;;;;;4227099;28;20481;-60
2021/11/04 09:59:31;;;;;;;12.70;4.70;;;17.10;78.40;;;;;;4212046;28;20063;-60
2021/11/04 10:01:54;;;;;;;20.52;6.22;;;17.10;78.10;;;;;;4209450;28;20477;-59
2021/11/04 10:04:16;;;;;;;16.23;6.53;;;17.00;79.40;;;;;;4210400;28;20424;-60
2021/11/04 10:06:39;;;;;;;12.32;6.05;;;17.00;79.10;;;;;;4226752;28;20043;-59
2021/11/04 10:09:05;;;;;;;9.27;5.18;;;17.10;78.20;;;;;;4226692;28;20040;-60
2021/11/04 10:11:29;;;;;;;32.58;5.97;;;17.10;77.30;;;;;;4210818;28;20048;-59
2021/11/04 10:13:59;;;;;;;14.85;6.28;;;17.10;74.70;;;;;;4226261;28;20051;-60
2021/11/04 10:16:27;;;;;;;20.48;5.93;;;17.10;75.40;;;;;;4209391;28;20055;-60
2021/11/04 10:18:51;;;;;;;30.60;6.45;;;17.00;77.10;;;;;;4215834;28;20599;-59
2021/11/04 10:21:34;;;;;;;9.60;6.10;;;17.00;77.30;;;;;;4214925;28;20048;-60
2021/11/04 10:23:57;;;;;;;8.57;6.18;;;17.00;77.10;;;;;;4209631;28;20143;-59
2021/11/04 10:26:24;;;;;;;14.45;6.65;;;16.90;77.50;;;;;;4209636;28;20101;-60
2021/11/04 10:28:48;;;;;;;13.85;6.40;;;16.90;77.50;;;;;;4209108;28;20051;-60
2021/11/04 10:31:15;;;;;;;17.00;7.45;;;17.00;77.80;;;;;;4210591;28;20104;-59
2021/11/04 10:33:39;;;;;;;9.13;7.30;;;17.00;77.00;;;;;;4208912;28;20098;-60
2021/11/04 10:36:04;;;;;;;7.88;6.20;;;17.10;76.50;;;;;;4225992;28;20151;-59
2021/11/04 10:38:38;;;;;;;9.02;7.45;;;17.10;77.50;;;;;;4208600;28;20069;-60
2021/11/04 10:41:00;;;;;;;10.20;7.20;;;17.10;76.50;;;;;;4209171;28;20072;-60
2021/11/04 10:43:23;;;;;;;10.48;7.75;;;17.20;79.00;;;;;;4224650;28;20040;-59
2021/11/04 10:45:45;;;;;;;7.85;7.05;;;17.10;79.90;;;;;;4226210;28;20048;-60
2021/11/04 10:48:26;;;;;;;7.72;6.93;;;17.10;80.60;;;;;;4226092;28;20051;-60
2021/11/04 10:50:50;;;;;;;7.78;6.40;;;17.10;80.00;;;;;;4221807;28;20165;-59
2021/11/04 10:53:14;;;;;;;7.00;6.30;;;17.10;81.20;;;;;;4209077;28;20078;-59
2021/11/04 10:55:36;;;;;;;7.53;6.80;;;17.10;82.10;;;;;;4225786;28;20806;-60
2021/11/04 10:57:58;;;;;;;7.53;6.68;;;17.10;81.90;;;;;;4225886;28;20043;-60
2021/11/04 11:00:23;;;;;;;8.68;7.78;;;17.00;82.20;;;;;;4225316;28;20064;-60
2021/11/04 11:03:07;;;;;;;8.02;6.18;;;17.00;82.90;;;;;;4225725;28;20040;-59
2021/11/04 11:05:31;;;;;;;8.60;7.10;;;16.90;82.50;;;;;;4225537;28;20130;-60
2021/11/04 11:07:55;;;;;;;12.27;8.52;;;16.90;84.00;;;;;;4208979;28;20089;-59
2021/11/04 11:10:17;;;;;;;8.65;7.75;;;16.90;84.60;;;;;;4208749;28;20559;-60
2021/11/04 11:12:40;;;;;;;11.43;7.95;;;16.90;83.90;;;;;;4196523;28;20064;-59
2021/11/04 11:15:02;;;;;;;7.50;6.45;;;16.80;84.90;;;;;;4208186;28;20783;-60
2021/11/04 11:17:25;;;;;;;7.47;6.68;;;16.80;84.90;;;;;;4208427;28;20122;-59
2021/11/04 11:19:47;;;;;;;8.05;7.25;;;16.80;84.90;;;;;;4208574;28;20097;-59
2021/11/04 11:22:12;;;;;;;8.30;7.43;;;16.80;85.00;;;;;;4208458;28;20040;-60
2021/11/04 11:24:36;;;;;;;7.75;7.05;;;16.80;85.40;;;;;;4209948;28;20513;-59
2021/11/04 11:26:59;;;;;;;8.25;7.45;;;16.70;85.60;;;;;;4208651;28;20134;-60
2021/11/04 11:29:22;;;;;;;10.18;7.22;;;16.70;85.30;;;;;;4208463;28;20520;-58
2021/11/04 11:31:49;;;;;;;8.75;7.85;;;16.70;85.50;;;;;;4207778;28;20052;-59
2021/11/04 11:34:29;;;;;;;8.50;7.70;;;16.70;83.90;;;;;;4208036;28;20044;-60
2021/11/04 11:37:23;;;;;;;9.13;8.10;;;16.70;83.90;;;;;;4224979;28;20051;-59
2021/11/04 11:40:10;;;;;;;8.60;6.93;;;16.70;84.00;;;;;;4209588;28;20048;-59
2021/11/04 11:42:34;;;;;;;8.30;7.50;;;16.60;85.00;;;;;;4208196;28;20051;-60
2021/11/04 11:44:58;;;;;;;8.35;7.22;;;16.60;84.80;;;;;;4207068;28;20056;-59
2021/11/04 11:47:22;;;;;;;8.35;7.55;;;16.50;85.50;;;;;;4212726;28;20071;-59
2021/11/04 11:49:46;;;;;;;7.75;6.40;;;16.50;85.00;;;;;;4224443;28;20596;-58
2021/11/04 11:52:39;;;;;;;7.07;6.40;;;16.50;84.70;;;;;;4236213;27;20051;-58
2021/11/04 11:55:08;;;;;;;6.82;6.15;;;16.50;85.20;;;;;;4219710;28;20044;-58
2021/11/04 11:57:31;;;;;;;7.03;6.32;;;16.50;85.30;;;;;;4224467;28;20412;-59
2021/11/04 11:59:54;;;;;;;8.50;6.72;;;16.50;85.60;;;;;;4219995;28;20047;-59
2021/11/04 12:02:52;;;;;;;8.70;7.50;;;16.50;85.70;;;;;;4213142;27;20051;-59
2021/11/04 12:05:36;;;;;;;8.20;6.53;;;16.50;85.30;;;;;;4224653;28;20134;-59
2021/11/04 12:08:31;;;;;;;9.38;7.85;;;16.50;85.90;;;;;;4211765;28;20113;-59
2021/11/04 12:10:55;;;;;;;9.50;6.78;;;16.50;85.80;;;;;;4208143;28;20028;-58
2021/11/04 12:13:36;;;;;;;8.52;6.65;;;16.40;86.60;;;;;;4224444;28;20059;-59
2021/11/04 12:16:13;;;;;;;7.47;6.23;;;16.40;86.10;;;;;;4224328;28;20046;-60
2021/11/04 12:18:36;;;;;;;6.43;5.75;;;16.40;85.90;;;;;;4221289;28;20317;-60
2021/11/04 12:20:59;;;;;;;7.50;6.80;;;16.40;87.20;;;;;;4208217;28;20046;-60
2021/11/04 12:23:38;;;;;;;5.72;5.20;;;16.40;87.30;;;;;;4224458;28;20493;-59